Portada
METAR-TAF:

METAR-TAF

Aeroports :

Albenga, Itàlia

latitud: 44-03N, longitud: 008-07E, altitud: 45 m

Observació

L'informe es va fer fa 52 minuts, a les 15:50 UTC
Vent 9 kt del Est, variant entre Nord-Est i Est/Sud-Est
Temperatura 14°C
Humitat 21%
Pressió 1018 hPa
Visibilitat 10 km o més
sense núvols per sota de 1500 mi sense presència de cumulonimbus.

METAR: LIMG 101550Z 08009KT 050V110 CAVOK 14/M08 Q1018

Hora: 17:42 (16:42 UTC)


TAF: manca

Observacions i pronòstics meteorològics de més de 4000 aeroports (METAR i TAF).

Les estacions disponibles són els punts grocs i vermells al mapa.

Posi el ratolí al punt desitjat per veure el nom de l'estació.

Feu clic per veure les observacions i els pronòstics meteorològics.

Per canviar el mapa: feu clic els botons verds amb una creu de color negre per apropar; al botó verd amb un guió per allunyar la imatge; o en les fletxes verdes per a mapes adjacents.


METAR-TAF: